sensor_id;sensor_type;location;lat;lon;timestamp;P1;durP1;ratioP1;P2;durP2;ratioP2
4208;SDS011;36320;48.860;2.380;2023-04-15T00:00:04;9.18;;;1.95;;
4208;SDS011;36320;48.860;2.380;2023-04-15T00:02:32;7.93;;;2.20;;
4208;SDS011;36320;48.860;2.380;2023-04-15T00:04:58;7.50;;;2.10;;
4208;SDS011;36320;48.860;2.380;2023-04-15T00:07:24;7.90;;;2.20;;
4208;SDS011;36320;48.860;2.380;2023-04-15T00:09:50;7.80;;;2.30;;
4208;SDS011;36320;48.860;2.380;2023-04-15T00:12:20;7.85;;;2.00;;
4208;SDS011;36320;48.860;2.380;2023-04-15T00:14:48;7.60;;;1.88;;
4208;SDS011;36320;48.860;2.380;2023-04-15T00:17:14;8.47;;;2.20;;
4208;SDS011;36320;48.860;2.380;2023-04-15T00:19:40;7.57;;;1.83;;
4208;SDS011;36320;48.860;2.380;2023-04-15T00:22:06;7.60;;;2.20;;
4208;SDS011;36320;48.860;2.380;2023-04-15T00:24:33;7.05;;;1.90;;
4208;SDS011;36320;48.860;2.380;2023-04-15T00:26:58;7.00;;;2.10;;
4208;SDS011;36320;48.860;2.380;2023-04-15T00:29:24;6.85;;;1.90;;
4208;SDS011;36320;48.860;2.380;2023-04-15T00:31:53;10.32;;;2.20;;
4208;SDS011;36320;48.860;2.380;2023-04-15T00:34:19;9.43;;;2.00;;
4208;SDS011;36320;48.860;2.380;2023-04-15T00:36:45;9.90;;;2.50;;
4208;SDS011;36320;48.860;2.380;2023-04-15T00:39:11;8.70;;;1.90;;
4208;SDS011;36320;48.860;2.380;2023-04-15T00:41:36;7.55;;;1.80;;
4208;SDS011;36320;48.860;2.380;2023-04-15T00:44:05;7.65;;;2.13;;
4208;SDS011;36320;48.860;2.380;2023-04-15T00:46:34;8.05;;;2.03;;
4208;SDS011;36320;48.860;2.380;2023-04-15T00:49:08;6.93;;;1.60;;
4208;SDS011;36320;48.860;2.380;2023-04-15T00:51:34;7.90;;;1.90;;
4208;SDS011;36320;48.860;2.380;2023-04-15T00:54:04;13.65;;;2.00;;
4208;SDS011;36320;48.860;2.380;2023-04-15T00:56:35;7.70;;;2.10;;
4208;SDS011;36320;48.860;2.380;2023-04-15T00:59:02;8.43;;;2.22;;
4208;SDS011;36320;48.860;2.380;2023-04-15T01:01:33;14.90;;;1.80;;
4208;SDS011;36320;48.860;2.380;2023-04-15T01:03:59;6.50;;;1.80;;
4208;SDS011;36320;48.860;2.380;2023-04-15T01:06:25;8.88;;;1.70;;
4208;SDS011;36320;48.860;2.380;2023-04-15T01:08:52;6.87;;;1.80;;
4208;SDS011;36320;48.860;2.380;2023-04-15T01:11:18;7.05;;;2.00;;
4208;SDS011;36320;48.860;2.380;2023-04-15T01:13:45;9.63;;;1.70;;
4208;SDS011;36320;48.860;2.380;2023-04-15T01:16:10;8.30;;;2.10;;
4208;SDS011;36320;48.860;2.380;2023-04-15T01:18:37;7.20;;;1.80;;
4208;SDS011;36320;48.860;2.380;2023-04-15T01:21:05;11.13;;;2.00;;
4208;SDS011;36320;48.860;2.380;2023-04-15T01:23:32;6.50;;;1.60;;
4208;SDS011;36320;48.860;2.380;2023-04-15T01:26:01;7.93;;;1.98;;
4208;SDS011;36320;48.860;2.380;2023-04-15T01:28:31;7.87;;;2.00;;
4208;SDS011;36320;48.860;2.380;2023-04-15T01:31:10;7.55;;;1.98;;
4208;SDS011;36320;48.860;2.380;2023-04-15T01:33:40;8.03;;;2.20;;
4208;SDS011;36320;48.860;2.380;2023-04-15T01:36:08;7.30;;;1.92;;
4208;SDS011;36320;48.860;2.380;2023-04-15T01:38:35;7.70;;;2.00;;
4208;SDS011;36320;48.860;2.380;2023-04-15T01:41:01;6.47;;;1.60;;
4208;SDS011;36320;48.860;2.380;2023-04-15T01:43:28;7.95;;;1.70;;
4208;SDS011;36320;48.860;2.380;2023-04-15T01:45:56;8.00;;;2.33;;
4208;SDS011;36320;48.860;2.380;2023-04-15T01:48:22;7.50;;;2.28;;
4208;SDS011;36320;48.860;2.380;2023-04-15T01:50:47;8.20;;;1.60;;
4208;SDS011;36320;48.860;2.380;2023-04-15T01:53:13;6.72;;;1.70;;
4208;SDS011;36320;48.860;2.380;2023-04-15T01:55:40;8.85;;;1.80;;
4208;SDS011;36320;48.860;2.380;2023-04-15T01:58:06;6.70;;;1.90;;
4208;SDS011;36320;48.860;2.380;2023-04-15T02:00:31;7.25;;;1.90;;
4208;SDS011;36320;48.860;2.380;2023-04-15T02:02:57;7.67;;;2.00;;
4208;SDS011;36320;48.860;2.380;2023-04-15T02:05:23;6.60;;;1.77;;
4208;SDS011;36320;48.860;2.380;2023-04-15T02:07:50;8.73;;;1.73;;
4208;SDS011;36320;48.860;2.380;2023-04-15T02:10:18;6.60;;;1.60;;
4208;SDS011;36320;48.860;2.380;2023-04-15T02:12:45;6.47;;;1.50;;
4208;SDS011;36320;48.860;2.380;2023-04-15T02:15:11;7.63;;;1.90;;
4208;SDS011;36320;48.860;2.380;2023-04-15T02:17:46;7.75;;;1.90;;
4208;SDS011;36320;48.860;2.380;2023-04-15T02:20:18;6.95;;;1.55;;
4208;SDS011;36320;48.860;2.380;2023-04-15T02:22:45;6.00;;;1.50;;
4208;SDS011;36320;48.860;2.380;2023-04-15T02:25:12;6.55;;;1.63;;
4208;SDS011;36320;48.860;2.380;2023-04-15T02:27:38;8.02;;;1.85;;
4208;SDS011;36320;48.860;2.380;2023-04-15T02:30:15;6.88;;;1.90;;
4208;SDS011;36320;48.860;2.380;2023-04-15T02:32:42;7.22;;;1.80;;
4208;SDS011;36320;48.860;2.380;2023-04-15T02:35:12;6.30;;;1.65;;
4208;SDS011;36320;48.860;2.380;2023-04-15T02:37:43;8.50;;;1.80;;
4208;SDS011;36320;48.860;2.380;2023-04-15T02:40:10;6.40;;;1.60;;
4208;SDS011;36320;48.860;2.380;2023-04-15T02:42:41;6.65;;;1.60;;
4208;SDS011;36320;48.860;2.380;2023-04-15T02:45:08;6.72;;;1.65;;
4208;SDS011;36320;48.860;2.380;2023-04-15T02:47:36;6.57;;;1.70;;
4208;SDS011;36320;48.860;2.380;2023-04-15T02:50:04;6.57;;;1.67;;
4208;SDS011;36320;48.860;2.380;2023-04-15T02:52:33;5.50;;;1.20;;
4208;SDS011;36320;48.860;2.380;2023-04-15T02:54:58;6.40;;;1.45;;
4208;SDS011;36320;48.860;2.380;2023-04-15T02:57:28;6.85;;;1.83;;
4208;SDS011;36320;48.860;2.380;2023-04-15T02:59:55;6.35;;;1.70;;
4208;SDS011;36320;48.860;2.380;2023-04-15T03:02:21;7.20;;;2.20;;
4208;SDS011;36320;48.860;2.380;2023-04-15T03:04:50;7.78;;;2.60;;
4208;SDS011;36320;48.860;2.380;2023-04-15T03:07:16;7.30;;;1.98;;
4208;SDS011;36320;48.860;2.380;2023-04-15T03:09:42;11.43;;;2.67;;
4208;SDS011;36320;48.860;2.380;2023-04-15T03:12:08;7.32;;;2.28;;
4208;SDS011;36320;48.860;2.380;2023-04-15T03:14:36;7.80;;;2.00;;
4208;SDS011;36320;48.860;2.380;2023-04-15T03:17:02;7.35;;;2.17;;
4208;SDS011;36320;48.860;2.380;2023-04-15T03:19:27;6.83;;;2.00;;
4208;SDS011;36320;48.860;2.380;2023-04-15T03:21:55;8.27;;;2.50;;
4208;SDS011;36320;48.860;2.380;2023-04-15T03:24:21;7.97;;;2.60;;
4208;SDS011;36320;48.860;2.380;2023-04-15T03:26:47;7.70;;;2.30;;
4208;SDS011;36320;48.860;2.380;2023-04-15T03:29:13;8.40;;;2.80;;
4208;SDS011;36320;48.860;2.380;2023-04-15T03:31:39;7.78;;;2.30;;
4208;SDS011;36320;48.860;2.380;2023-04-15T03:34:05;7.97;;;2.30;;
4208;SDS011;36320;48.860;2.380;2023-04-15T03:36:31;7.30;;;2.00;;
4208;SDS011;36320;48.860;2.380;2023-04-15T03:38:57;8.60;;;2.65;;
4208;SDS011;36320;48.860;2.380;2023-04-15T03:41:23;8.00;;;2.22;;
4208;SDS011;36320;48.860;2.380;2023-04-15T03:43:49;7.73;;;2.50;;
4208;SDS011;36320;48.860;2.380;2023-04-15T03:46:17;8.20;;;2.22;;
4208;SDS011;36320;48.860;2.380;2023-04-15T03:48:43;9.48;;;2.50;;
4208;SDS011;36320;48.860;2.380;2023-04-15T03:51:09;7.00;;;1.80;;
4208;SDS011;36320;48.860;2.380;2023-04-15T03:53:35;6.20;;;1.60;;
4208;SDS011;36320;48.860;2.380;2023-04-15T03:56:01;6.73;;;1.47;;
4208;SDS011;36320;48.860;2.380;2023-04-15T03:58:27;6.93;;;1.90;;
4208;SDS011;36320;48.860;2.380;2023-04-15T04:00:52;7.03;;;1.63;;
4208;SDS011;36320;48.860;2.380;2023-04-15T04:03:19;6.22;;;1.40;;
4208;SDS011;36320;48.860;2.380;2023-04-15T04:05:44;6.80;;;1.55;;
4208;SDS011;36320;48.860;2.380;2023-04-15T04:08:10;5.90;;;1.20;;
4208;SDS011;36320;48.860;2.380;2023-04-15T04:10:38;6.00;;;1.40;;
4208;SDS011;36320;48.860;2.380;2023-04-15T04:13:04;6.40;;;1.50;;
4208;SDS011;36320;48.860;2.380;2023-04-15T04:15:29;6.00;;;1.30;;
4208;SDS011;36320;48.860;2.380;2023-04-15T04:17:55;6.40;;;1.50;;
4208;SDS011;36320;48.860;2.380;2023-04-15T04:20:21;6.10;;;1.20;;
4208;SDS011;36320;48.860;2.380;2023-04-15T04:22:47;5.78;;;1.27;;
4208;SDS011;36320;48.860;2.380;2023-04-15T04:25:15;5.78;;;1.20;;
4208;SDS011;36320;48.860;2.380;2023-04-15T04:27:41;6.03;;;1.15;;
4208;SDS011;36320;48.860;2.380;2023-04-15T04:30:07;8.20;;;1.20;;
4208;SDS011;36320;48.860;2.380;2023-04-15T04:32:33;6.30;;;1.50;;
4208;SDS011;36320;48.860;2.380;2023-04-15T04:34:59;6.40;;;1.70;;
4208;SDS011;36320;48.860;2.380;2023-04-15T04:37:25;5.40;;;1.00;;
4208;SDS011;36320;48.860;2.380;2023-04-15T04:39:50;5.82;;;1.08;;
4208;SDS011;36320;48.860;2.380;2023-04-15T04:42:16;5.90;;;1.00;;
4208;SDS011;36320;48.860;2.380;2023-04-15T04:44:42;5.30;;;0.90;;
4208;SDS011;36320;48.860;2.380;2023-04-15T04:47:08;6.10;;;1.10;;
4208;SDS011;36320;48.860;2.380;2023-04-15T04:49:33;5.50;;;1.05;;
4208;SDS011;36320;48.860;2.380;2023-04-15T04:52:00;5.28;;;0.98;;
4208;SDS011;36320;48.860;2.380;2023-04-15T04:54:26;7.70;;;1.23;;
4208;SDS011;36320;48.860;2.380;2023-04-15T04:56:52;5.90;;;1.00;;
4208;SDS011;36320;48.860;2.380;2023-04-15T04:59:18;5.25;;;0.90;;
4208;SDS011;36320;48.860;2.380;2023-04-15T05:01:44;5.33;;;1.00;;
4208;SDS011;36320;48.860;2.380;2023-04-15T05:04:10;5.60;;;1.00;;
4208;SDS011;36320;48.860;2.380;2023-04-15T05:06:36;6.28;;;1.00;;
4208;SDS011;36320;48.860;2.380;2023-04-15T05:09:02;5.43;;;1.00;;
4208;SDS011;36320;48.860;2.380;2023-04-15T05:11:28;5.10;;;0.90;;
4208;SDS011;36320;48.860;2.380;2023-04-15T05:13:53;5.10;;;0.90;;
4208;SDS011;36320;48.860;2.380;2023-04-15T05:16:19;5.30;;;0.90;;
4208;SDS011;36320;48.860;2.380;2023-04-15T05:18:46;5.40;;;0.90;;
4208;SDS011;36320;48.860;2.380;2023-04-15T05:21:12;7.17;;;1.10;;
4208;SDS011;36320;48.860;2.380;2023-04-15T05:23:37;5.50;;;0.90;;
4208;SDS011;36320;48.860;2.380;2023-04-15T05:26:04;5.30;;;0.90;;
4208;SDS011;36320;48.860;2.380;2023-04-15T05:28:29;5.50;;;1.00;;
4208;SDS011;36320;48.860;2.380;2023-04-15T05:30:55;5.40;;;0.90;;
4208;SDS011;36320;48.860;2.380;2023-04-15T05:33:21;6.47;;;0.90;;
4208;SDS011;36320;48.860;2.380;2023-04-15T05:35:47;5.33;;;0.90;;
4208;SDS011;36320;48.860;2.380;2023-04-15T05:38:13;5.20;;;0.90;;
4208;SDS011;36320;48.860;2.380;2023-04-15T05:40:38;5.50;;;1.00;;
4208;SDS011;36320;48.860;2.380;2023-04-15T05:43:05;5.40;;;1.00;;
4208;SDS011;36320;48.860;2.380;2023-04-15T05:45:31;6.20;;;1.10;;
4208;SDS011;36320;48.860;2.380;2023-04-15T05:47:57;5.60;;;1.10;;
4208;SDS011;36320;48.860;2.380;2023-04-15T05:50:22;5.15;;;0.85;;
4208;SDS011;36320;48.860;2.380;2023-04-15T05:52:48;5.40;;;1.00;;
4208;SDS011;36320;48.860;2.380;2023-04-15T05:55:16;5.60;;;1.00;;
4208;SDS011;36320;48.860;2.380;2023-04-15T05:57:41;5.93;;;1.10;;
4208;SDS011;36320;48.860;2.380;2023-04-15T06:00:07;5.40;;;0.93;;
4208;SDS011;36320;48.860;2.380;2023-04-15T06:02:34;5.38;;;1.00;;
4208;SDS011;36320;48.860;2.380;2023-04-15T06:05:00;6.38;;;1.30;;
4208;SDS011;36320;48.860;2.380;2023-04-15T06:07:26;5.40;;;1.00;;
4208;SDS011;36320;48.860;2.380;2023-04-15T06:09:51;5.70;;;1.10;;
4208;SDS011;36320;48.860;2.380;2023-04-15T06:12:19;6.20;;;1.10;;
4208;SDS011;36320;48.860;2.380;2023-04-15T06:14:45;5.70;;;1.20;;
4208;SDS011;36320;48.860;2.380;2023-04-15T06:17:11;5.40;;;1.10;;
4208;SDS011;36320;48.860;2.380;2023-04-15T06:19:38;6.00;;;1.10;;
4208;SDS011;36320;48.860;2.380;2023-04-15T06:22:04;5.50;;;1.02;;
4208;SDS011;36320;48.860;2.380;2023-04-15T06:24:31;5.80;;;1.10;;
4208;SDS011;36320;48.860;2.380;2023-04-15T06:26:57;6.30;;;1.40;;
4208;SDS011;36320;48.860;2.380;2023-04-15T06:29:23;5.60;;;1.10;;
4208;SDS011;36320;48.860;2.380;2023-04-15T06:31:48;5.50;;;1.10;;
4208;SDS011;36320;48.860;2.380;2023-04-15T06:34:15;5.40;;;1.00;;
4208;SDS011;36320;48.860;2.380;2023-04-15T06:36:41;5.70;;;1.10;;
4208;SDS011;36320;48.860;2.380;2023-04-15T06:39:06;5.40;;;0.93;;
4208;SDS011;36320;48.860;2.380;2023-04-15T06:41:32;6.47;;;1.30;;
4208;SDS011;36320;48.860;2.380;2023-04-15T06:43:59;5.35;;;1.00;;
4208;SDS011;36320;48.860;2.380;2023-04-15T06:46:25;5.70;;;1.10;;
4208;SDS011;36320;48.860;2.380;2023-04-15T06:48:51;6.63;;;1.38;;
4208;SDS011;36320;48.860;2.380;2023-04-15T06:51:18;5.80;;;1.10;;
4208;SDS011;36320;48.860;2.380;2023-04-15T06:53:43;5.90;;;1.20;;
4208;SDS011;36320;48.860;2.380;2023-04-15T06:56:09;5.50;;;1.00;;
4208;SDS011;36320;48.860;2.380;2023-04-15T06:58:35;5.50;;;1.10;;
4208;SDS011;36320;48.860;2.380;2023-04-15T07:01:05;5.40;;;1.10;;
4208;SDS011;36320;48.860;2.380;2023-04-15T07:03:31;5.10;;;0.85;;
4208;SDS011;36320;48.860;2.380;2023-04-15T07:05:57;5.20;;;0.90;;
4208;SDS011;36320;48.860;2.380;2023-04-15T07:08:22;6.18;;;1.00;;
4208;SDS011;36320;48.860;2.380;2023-04-15T07:10:49;5.40;;;1.00;;
4208;SDS011;36320;48.860;2.380;2023-04-15T07:13:15;5.10;;;0.90;;
4208;SDS011;36320;48.860;2.380;2023-04-15T07:15:44;5.93;;;1.10;;
4208;SDS011;36320;48.860;2.380;2023-04-15T07:18:09;5.20;;;0.90;;
4208;SDS011;36320;48.860;2.380;2023-04-15T07:20:35;5.65;;;1.20;;
4208;SDS011;36320;48.860;2.380;2023-04-15T07:23:03;6.15;;;0.90;;
4208;SDS011;36320;48.860;2.380;2023-04-15T07:25:29;5.50;;;1.10;;
4208;SDS011;36320;48.860;2.380;2023-04-15T07:27:55;5.70;;;1.00;;
4208;SDS011;36320;48.860;2.380;2023-04-15T07:30:21;5.20;;;0.90;;
4208;SDS011;36320;48.860;2.380;2023-04-15T07:32:47;6.30;;;1.02;;
4208;SDS011;36320;48.860;2.380;2023-04-15T07:35:13;6.00;;;0.90;;
4208;SDS011;36320;48.860;2.380;2023-04-15T07:37:39;5.90;;;1.00;;
4208;SDS011;36320;48.860;2.380;2023-04-15T07:40:07;5.30;;;1.00;;
4208;SDS011;36320;48.860;2.380;2023-04-15T07:42:33;5.50;;;1.00;;
4208;SDS011;36320;48.860;2.380;2023-04-15T07:44:59;5.10;;;0.90;;
4208;SDS011;36320;48.860;2.380;2023-04-15T07:47:25;5.20;;;0.90;;
4208;SDS011;36320;48.860;2.380;2023-04-15T07:49:54;5.30;;;0.90;;
4208;SDS011;36320;48.860;2.380;2023-04-15T07:52:23;5.10;;;0.80;;
4208;SDS011;36320;48.860;2.380;2023-04-15T07:54:49;5.28;;;0.90;;
4208;SDS011;36320;48.860;2.380;2023-04-15T07:57:15;5.15;;;0.80;;
4208;SDS011;36320;48.860;2.380;2023-04-15T07:59:41;5.20;;;0.90;;
4208;SDS011;36320;48.860;2.380;2023-04-15T08:02:07;5.40;;;0.90;;
4208;SDS011;36320;48.860;2.380;2023-04-15T08:04:35;5.30;;;1.00;;
4208;SDS011;36320;48.860;2.380;2023-04-15T08:07:01;5.30;;;0.90;;
4208;SDS011;36320;48.860;2.380;2023-04-15T08:09:27;5.10;;;0.90;;
4208;SDS011;36320;48.860;2.380;2023-04-15T08:11:53;5.30;;;0.90;;
4208;SDS011;36320;48.860;2.380;2023-04-15T08:14:19;5.30;;;0.90;;
4208;SDS011;36320;48.860;2.380;2023-04-15T08:16:44;6.20;;;1.20;;
4208;SDS011;36320;48.860;2.380;2023-04-15T08:19:10;5.90;;;1.03;;
4208;SDS011;36320;48.860;2.380;2023-04-15T08:21:36;5.85;;;1.00;;
4208;SDS011;36320;48.860;2.380;2023-04-15T08:24:02;5.40;;;1.10;;
4208;SDS011;36320;48.860;2.380;2023-04-15T08:26:28;5.40;;;1.15;;
4208;SDS011;36320;48.860;2.380;2023-04-15T08:28:53;5.80;;;1.13;;
4208;SDS011;36320;48.860;2.380;2023-04-15T08:31:19;5.30;;;1.00;;
4208;SDS011;36320;48.860;2.380;2023-04-15T08:33:46;5.47;;;1.05;;
4208;SDS011;36320;48.860;2.380;2023-04-15T08:36:12;5.20;;;0.90;;
4208;SDS011;36320;48.860;2.380;2023-04-15T08:38:38;5.30;;;1.00;;
4208;SDS011;36320;48.860;2.380;2023-04-15T08:41:06;5.10;;;0.90;;
4208;SDS011;36320;48.860;2.380;2023-04-15T08:43:39;5.80;;;1.30;;
4208;SDS011;36320;48.860;2.380;2023-04-15T08:46:12;5.60;;;1.00;;
4208;SDS011;36320;48.860;2.380;2023-04-15T08:48:40;5.93;;;1.20;;
4208;SDS011;36320;48.860;2.380;2023-04-15T08:51:07;5.63;;;1.10;;
4208;SDS011;36320;48.860;2.380;2023-04-15T08:53:33;5.60;;;1.00;;
4208;SDS011;36320;48.860;2.380;2023-04-15T08:56:02;5.60;;;1.00;;
4208;SDS011;36320;48.860;2.380;2023-04-15T08:58:30;6.07;;;1.08;;
4208;SDS011;36320;48.860;2.380;2023-04-15T09:00:56;5.60;;;0.90;;
4208;SDS011;36320;48.860;2.380;2023-04-15T09:03:23;5.20;;;0.90;;
4208;SDS011;36320;48.860;2.380;2023-04-15T09:05:49;5.20;;;0.90;;
4208;SDS011;36320;48.860;2.380;2023-04-15T09:08:15;5.10;;;0.90;;
4208;SDS011;36320;48.860;2.380;2023-04-15T09:10:41;5.30;;;0.90;;
4208;SDS011;36320;48.860;2.380;2023-04-15T09:13:07;5.40;;;1.00;;
4208;SDS011;36320;48.860;2.380;2023-04-15T09:15:33;6.93;;;1.20;;
4208;SDS011;36320;48.860;2.380;2023-04-15T09:18:03;5.40;;;1.02;;
4208;SDS011;36320;48.860;2.380;2023-04-15T09:20:38;6.70;;;1.40;;
4208;SDS011;36320;48.860;2.380;2023-04-15T09:23:11;5.13;;;0.80;;
4208;SDS011;36320;48.860;2.380;2023-04-15T09:25:38;9.52;;;1.10;;
4208;SDS011;36320;48.860;2.380;2023-04-15T09:28:06;6.60;;;1.20;;
4208;SDS011;36320;48.860;2.380;2023-04-15T09:30:32;5.50;;;1.00;;
4208;SDS011;36320;48.860;2.380;2023-04-15T09:33:00;5.40;;;0.90;;
4208;SDS011;36320;48.860;2.380;2023-04-15T09:35:27;6.10;;;0.98;;
4208;SDS011;36320;48.860;2.380;2023-04-15T09:38:01;9.02;;;1.10;;
4208;SDS011;36320;48.860;2.380;2023-04-15T09:40:39;6.60;;;1.23;;
4208;SDS011;36320;48.860;2.380;2023-04-15T09:43:06;6.05;;;1.10;;
4208;SDS011;36320;48.860;2.380;2023-04-15T09:45:33;5.68;;;1.02;;
4208;SDS011;36320;48.860;2.380;2023-04-15T09:48:42;9.00;;;1.70;;
4208;SDS011;36320;48.860;2.380;2023-04-15T09:50:58;7.50;;;1.20;;
4208;SDS011;36320;48.860;2.380;2023-04-15T09:53:25;6.65;;;1.30;;
4208;SDS011;36320;48.860;2.380;2023-04-15T09:58:32;6.53;;;1.20;;
4208;SDS011;36320;48.860;2.380;2023-04-15T10:00:59;6.50;;;1.20;;
4208;SDS011;36320;48.860;2.380;2023-04-15T10:03:29;5.28;;;0.90;;
4208;SDS011;36320;48.860;2.380;2023-04-15T10:05:59;5.80;;;1.10;;
4208;SDS011;36320;48.860;2.380;2023-04-15T10:08:27;6.20;;;1.50;;
4208;SDS011;36320;48.860;2.380;2023-04-15T10:10:54;7.43;;;1.40;;
4208;SDS011;36320;48.860;2.380;2023-04-15T10:13:24;5.50;;;1.10;;
4208;SDS011;36320;48.860;2.380;2023-04-15T10:18:53;5.90;;;1.20;;
4208;SDS011;36320;48.860;2.380;2023-04-15T10:21:23;5.60;;;1.10;;
4208;SDS011;36320;48.860;2.380;2023-04-15T10:23:51;5.93;;;1.20;;
4208;SDS011;36320;48.860;2.380;2023-04-15T10:26:17;6.00;;;1.10;;
4208;SDS011;36320;48.860;2.380;2023-04-15T10:28:44;5.68;;;1.17;;
4208;SDS011;36320;48.860;2.380;2023-04-15T10:31:14;5.95;;;1.15;;
4208;SDS011;36320;48.860;2.380;2023-04-15T10:33:42;6.00;;;1.25;;
4208;SDS011;36320;48.860;2.380;2023-04-15T10:36:09;9.43;;;1.30;;
4208;SDS011;36320;48.860;2.380;2023-04-15T10:38:40;8.13;;;1.30;;
4208;SDS011;36320;48.860;2.380;2023-04-15T10:43:56;6.30;;;1.20;;
4208;SDS011;36320;48.860;2.380;2023-04-15T10:49:08;6.03;;;1.30;;
4208;SDS011;36320;48.860;2.380;2023-04-15T10:51:36;5.63;;;1.00;;
4208;SDS011;36320;48.860;2.380;2023-04-15T10:54:13;6.90;;;1.30;;
4208;SDS011;36320;48.860;2.380;2023-04-15T10:56:44;6.50;;;1.10;;
4208;SDS011;36320;48.860;2.380;2023-04-15T10:59:15;5.50;;;1.00;;
4208;SDS011;36320;48.860;2.380;2023-04-15T11:01:50;6.57;;;1.20;;
4208;SDS011;36320;48.860;2.380;2023-04-15T11:07:36;5.80;;;1.00;;
4208;SDS011;36320;48.860;2.380;2023-04-15T11:12:56;5.70;;;0.95;;
4208;SDS011;36320;48.860;2.380;2023-04-15T11:20:51;8.52;;;1.38;;
4208;SDS011;36320;48.860;2.380;2023-04-15T11:26:02;6.60;;;1.15;;
4208;SDS011;36320;48.860;2.380;2023-04-15T11:28:34;6.60;;;1.30;;
4208;SDS011;36320;48.860;2.380;2023-04-15T11:31:14;6.00;;;1.20;;
4208;SDS011;36320;48.860;2.380;2023-04-15T11:33:58;6.35;;;1.25;;
4208;SDS011;36320;48.860;2.380;2023-04-15T11:36:28;7.10;;;1.30;;
4208;SDS011;36320;48.860;2.380;2023-04-15T11:38:56;5.80;;;1.20;;
4208;SDS011;36320;48.860;2.380;2023-04-15T11:41:23;5.90;;;1.20;;
4208;SDS011;36320;48.860;2.380;2023-04-15T11:43:49;6.30;;;1.30;;
4208;SDS011;36320;48.860;2.380;2023-04-15T11:46:15;6.03;;;1.20;;
4208;SDS011;36320;48.860;2.380;2023-04-15T11:48:42;6.00;;;1.20;;
4208;SDS011;36320;48.860;2.380;2023-04-15T11:51:10;6.20;;;1.38;;
4208;SDS011;36320;48.860;2.380;2023-04-15T11:53:46;6.10;;;1.25;;
4208;SDS011;36320;48.860;2.380;2023-04-15T11:56:17;6.18;;;1.38;;
4208;SDS011;36320;48.860;2.380;2023-04-15T11:58:45;7.50;;;1.47;;
4208;SDS011;36320;48.860;2.380;2023-04-15T12:01:14;6.50;;;1.48;;
4208;SDS011;36320;48.860;2.380;2023-04-15T12:03:44;6.05;;;1.23;;
4208;SDS011;36320;48.860;2.380;2023-04-15T12:06:12;6.17;;;1.30;;
4208;SDS011;36320;48.860;2.380;2023-04-15T12:13:56;5.70;;;1.10;;
4208;SDS011;36320;48.860;2.380;2023-04-15T12:16:28;7.03;;;1.37;;
4208;SDS011;36320;48.860;2.380;2023-04-15T12:18:55;8.38;;;1.80;;
4208;SDS011;36320;48.860;2.380;2023-04-15T12:21:26;6.90;;;1.50;;
4208;SDS011;36320;48.860;2.380;2023-04-15T12:24:00;6.20;;;1.10;;
4208;SDS011;36320;48.860;2.380;2023-04-15T12:26:46;9.80;;;1.20;;
4208;SDS011;36320;48.860;2.380;2023-04-15T12:29:13;6.68;;;1.30;;
4208;SDS011;36320;48.860;2.380;2023-04-15T12:31:48;6.00;;;1.17;;
4208;SDS011;36320;48.860;2.380;2023-04-15T12:34:32;6.53;;;1.30;;
4208;SDS011;36320;48.860;2.380;2023-04-15T12:37:02;8.27;;;1.60;;
4208;SDS011;36320;48.860;2.380;2023-04-15T12:39:30;7.45;;;1.15;;
4208;SDS011;36320;48.860;2.380;2023-04-15T12:42:00;5.60;;;1.10;;
4208;SDS011;36320;48.860;2.380;2023-04-15T12:44:25;8.20;;;1.60;;
4208;SDS011;36320;48.860;2.380;2023-04-15T12:46:52;6.53;;;1.33;;
4208;SDS011;36320;48.860;2.380;2023-04-15T12:49:19;5.75;;;1.10;;
4208;SDS011;36320;48.860;2.380;2023-04-15T12:51:50;6.63;;;1.20;;
4208;SDS011;36320;48.860;2.380;2023-04-15T12:54:17;5.90;;;1.20;;
4208;SDS011;36320;48.860;2.380;2023-04-15T12:56:43;6.20;;;1.20;;
4208;SDS011;36320;48.860;2.380;2023-04-15T12:59:12;6.38;;;1.48;;
4208;SDS011;36320;48.860;2.380;2023-04-15T13:01:38;6.53;;;1.40;;
4208;SDS011;36320;48.860;2.380;2023-04-15T13:04:05;6.40;;;1.10;;
4208;SDS011;36320;48.860;2.380;2023-04-15T13:06:31;6.10;;;1.33;;
4208;SDS011;36320;48.860;2.380;2023-04-15T13:08:59;6.40;;;1.30;;
4208;SDS011;36320;48.860;2.380;2023-04-15T13:11:26;6.63;;;1.30;;
4208;SDS011;36320;48.860;2.380;2023-04-15T13:13:54;7.22;;;1.20;;
4208;SDS011;36320;48.860;2.380;2023-04-15T13:16:21;6.60;;;1.17;;
4208;SDS011;36320;48.860;2.380;2023-04-15T13:18:48;7.30;;;1.20;;
4208;SDS011;36320;48.860;2.380;2023-04-15T13:21:15;6.30;;;1.20;;
4208;SDS011;36320;48.860;2.380;2023-04-15T13:23:47;6.60;;;1.20;;
4208;SDS011;36320;48.860;2.380;2023-04-15T13:26:17;6.70;;;1.23;;
4208;SDS011;36320;48.860;2.380;2023-04-15T13:28:43;7.60;;;1.58;;
4208;SDS011;36320;48.860;2.380;2023-04-15T13:31:10;9.03;;;1.30;;
4208;SDS011;36320;48.860;2.380;2023-04-15T13:33:36;9.45;;;1.13;;
4208;SDS011;36320;48.860;2.380;2023-04-15T13:36:02;6.60;;;1.00;;
4208;SDS011;36320;48.860;2.380;2023-04-15T13:38:30;6.40;;;1.30;;
4208;SDS011;36320;48.860;2.380;2023-04-15T13:40:55;6.40;;;1.27;;
4208;SDS011;36320;48.860;2.380;2023-04-15T13:43:21;6.10;;;1.20;;
4208;SDS011;36320;48.860;2.380;2023-04-15T13:45:47;10.85;;;1.33;;
4208;SDS011;36320;48.860;2.380;2023-04-15T13:48:13;8.00;;;1.50;;
4208;SDS011;36320;48.860;2.380;2023-04-15T13:50:39;7.00;;;1.23;;
4208;SDS011;36320;48.860;2.380;2023-04-15T13:53:09;8.88;;;1.90;;
4208;SDS011;36320;48.860;2.380;2023-04-15T13:55:37;6.60;;;1.33;;
4208;SDS011;36320;48.860;2.380;2023-04-15T13:58:09;7.10;;;1.13;;
4208;SDS011;36320;48.860;2.380;2023-04-15T14:00:37;7.50;;;1.00;;
4208;SDS011;36320;48.860;2.380;2023-04-15T14:03:03;6.32;;;1.10;;
4208;SDS011;36320;48.860;2.380;2023-04-15T14:05:29;6.10;;;1.10;;
4208;SDS011;36320;48.860;2.380;2023-04-15T14:07:58;7.03;;;1.23;;
4208;SDS011;36320;48.860;2.380;2023-04-15T14:10:24;6.20;;;1.20;;
4208;SDS011;36320;48.860;2.380;2023-04-15T14:12:49;6.20;;;1.20;;
4208;SDS011;36320;48.860;2.380;2023-04-15T14:15:15;6.55;;;1.30;;
4208;SDS011;36320;48.860;2.380;2023-04-15T14:17:41;6.00;;;1.10;;
4208;SDS011;36320;48.860;2.380;2023-04-15T14:20:07;7.70;;;1.35;;
4208;SDS011;36320;48.860;2.380;2023-04-15T14:22:34;12.93;;;2.10;;
4208;SDS011;36320;48.860;2.380;2023-04-15T14:25:00;7.30;;;1.30;;
4208;SDS011;36320;48.860;2.380;2023-04-15T14:27:25;6.13;;;1.20;;
4208;SDS011;36320;48.860;2.380;2023-04-15T14:29:51;7.32;;;1.00;;
4208;SDS011;36320;48.860;2.380;2023-04-15T14:32:18;6.20;;;1.10;;
4208;SDS011;36320;48.860;2.380;2023-04-15T14:34:44;6.57;;;1.40;;
4208;SDS011;36320;48.860;2.380;2023-04-15T14:37:09;6.30;;;1.30;;
4208;SDS011;36320;48.860;2.380;2023-04-15T14:39:35;7.35;;;1.40;;
4208;SDS011;36320;48.860;2.380;2023-04-15T14:42:01;8.38;;;1.50;;
4208;SDS011;36320;48.860;2.380;2023-04-15T14:44:27;9.45;;;1.30;;
4208;SDS011;36320;48.860;2.380;2023-04-15T14:46:53;8.02;;;1.10;;
4208;SDS011;36320;48.860;2.380;2023-04-15T14:49:19;6.45;;;1.27;;
4208;SDS011;36320;48.860;2.380;2023-04-15T14:51:48;6.40;;;1.10;;
4208;SDS011;36320;48.860;2.380;2023-04-15T14:54:14;6.90;;;1.10;;
4208;SDS011;36320;48.860;2.380;2023-04-15T14:56:40;8.10;;;1.58;;
4208;SDS011;36320;48.860;2.380;2023-04-15T14:59:07;7.35;;;1.38;;
4208;SDS011;36320;48.860;2.380;2023-04-15T15:01:34;7.00;;;1.20;;
4208;SDS011;36320;48.860;2.380;2023-04-15T15:03:59;9.40;;;1.60;;
4208;SDS011;36320;48.860;2.380;2023-04-15T15:06:25;6.25;;;1.17;;
4208;SDS011;36320;48.860;2.380;2023-04-15T15:08:51;8.52;;;1.60;;
4208;SDS011;36320;48.860;2.380;2023-04-15T15:11:17;11.40;;;1.38;;
4208;SDS011;36320;48.860;2.380;2023-04-15T15:13:50;7.82;;;1.30;;
4208;SDS011;36320;48.860;2.380;2023-04-15T15:16:18;6.20;;;1.10;;
4208;SDS011;36320;48.860;2.380;2023-04-15T15:18:43;10.70;;;1.40;;
4208;SDS011;36320;48.860;2.380;2023-04-15T15:21:09;7.40;;;1.20;;
4208;SDS011;36320;48.860;2.380;2023-04-15T15:23:36;7.00;;;1.40;;
4208;SDS011;36320;48.860;2.380;2023-04-15T15:26:02;12.25;;;1.27;;
4208;SDS011;36320;48.860;2.380;2023-04-15T15:28:29;6.70;;;1.30;;
4208;SDS011;36320;48.860;2.380;2023-04-15T15:30:54;8.50;;;1.42;;